Belvidere, Nebraska
Current Conditions -  °F | °C
As of 11:15 PM on Monday 22 Dec 2014 (Local Time) from KHJH Reporting Station
Clear Clear  
Wind Chill: 28°   Ceiling: Unl
Heat Index: 36°   Visibility: 10mi
Dew Point: 29°   Wind: 12mph
Humidity: 76%   Direction: 300°WNW
Pressure: 29.57"   Gusts: 18mph
Location:  40.25°N, 97.56°W
Report Text: KHJH 230515Z AUTO 30010G16KT 10SM CLR 02/M01 A2957 RMK AO2 T00241014
Loading
Personal Weather Stations






























Interactive Weather Map New forecast layout! Learn more

10-Day Weather Forecast

Advertisements
Track Severe Weather on mobile